createdAt,value
2022-08-11T00:00:43.411Z,20.25
2022-08-11T00:01:53.798Z,20.27
2022-08-11T00:02:56.090Z,20.25
2022-08-11T00:04:02.470Z,20.29
2022-08-11T00:05:24.301Z,20.32
2022-08-11T00:06:27.324Z,20.31
2022-08-11T00:07:29.940Z,20.28
2022-08-11T00:08:32.446Z,20.28
2022-08-11T00:09:39.062Z,20.27
2022-08-11T00:10:41.927Z,20.25
2022-08-11T00:11:50.766Z,20.22
2022-08-11T00:12:56.342Z,20.21
2022-08-11T00:13:58.460Z,20.19
2022-08-11T00:15:01.467Z,20.17
2022-08-11T00:16:11.077Z,20.13
2022-08-11T00:17:15.908Z,20.11
2022-08-11T00:18:18.139Z,20.06
2022-08-11T00:20:12.232Z,20.06
2022-08-11T00:20:45.813Z,20.03
2022-08-11T00:22:04.574Z,20.00
2022-08-11T00:23:10.506Z,19.94
2022-08-11T00:24:12.619Z,19.96
2022-08-11T00:25:20.392Z,19.95
2022-08-11T00:26:23.245Z,19.93
2022-08-11T00:27:36.283Z,19.94
2022-08-11T00:28:38.039Z,19.93
2022-08-11T00:29:51.740Z,19.91
2022-08-11T00:30:54.928Z,19.88
2022-08-11T00:31:58.441Z,19.89
2022-08-11T00:33:00.189Z,19.85
2022-08-11T00:34:03.825Z,19.82
2022-08-11T00:35:56.344Z,19.76
2022-08-11T00:36:42.780Z,19.76
2022-08-11T00:37:50.024Z,19.73
2022-08-11T00:38:53.686Z,19.72
2022-08-11T00:39:57.881Z,19.70
2022-08-11T00:41:04.574Z,19.68
2022-08-11T00:42:25.051Z,19.71
2022-08-11T00:43:56.357Z,19.68
2022-08-11T00:45:18.384Z,19.64
2022-08-11T00:46:35.264Z,19.67
2022-08-11T00:47:51.746Z,19.67
2022-08-11T00:49:13.926Z,19.64
2022-08-11T00:50:35.178Z,19.64
2022-08-11T00:52:10.231Z,19.62
2022-08-11T00:53:40.839Z,19.62
2022-08-11T00:55:03.875Z,19.60
2022-08-11T00:56:24.471Z,19.59
2022-08-11T00:58:12.774Z,19.56
2022-08-11T00:59:36.066Z,19.56
2022-08-11T01:01:16.411Z,19.51
2022-08-11T01:02:29.132Z,19.47
2022-08-11T01:03:53.719Z,19.47
2022-08-11T01:05:10.134Z,19.44
2022-08-11T01:06:49.083Z,19.42
2022-08-11T01:08:18.616Z,19.41
2022-08-11T01:09:38.618Z,19.41
2022-08-11T01:11:11.081Z,19.40
2022-08-11T01:12:26.448Z,19.39
2022-08-11T01:13:46.464Z,19.37
2022-08-11T01:15:15.654Z,19.36
2022-08-11T01:16:36.059Z,19.31
2022-08-11T01:18:05.471Z,19.28
2022-08-11T01:19:25.737Z,19.24
2022-08-11T01:20:49.413Z,19.22
2022-08-11T01:21:54.221Z,19.22
2022-08-11T01:23:17.747Z,19.19
2022-08-11T01:24:57.671Z,19.16
2022-08-11T01:26:17.621Z,19.11
2022-08-11T01:27:48.296Z,19.09
2022-08-11T01:29:18.535Z,19.08
2022-08-11T01:30:54.365Z,19.03
2022-08-11T01:31:58.871Z,18.97
2022-08-11T01:33:21.864Z,18.93
2022-08-11T01:34:44.945Z,18.92
2022-08-11T01:36:17.487Z,18.87
2022-08-11T01:37:48.511Z,18.83
2022-08-11T01:39:18.495Z,18.81
2022-08-11T01:40:38.225Z,18.80
2022-08-11T01:41:42.403Z,18.79
2022-08-11T01:43:21.508Z,18.80
2022-08-11T01:44:52.153Z,18.83
2022-08-11T01:46:28.005Z,18.79
2022-08-11T01:47:38.011Z,18.77
2022-08-11T01:50:05.917Z,18.74
2022-08-11T01:50:54.104Z,18.74
2022-08-11T01:52:34.593Z,18.75
2022-08-11T01:53:42.734Z,18.76
2022-08-11T01:55:20.178Z,18.76
2022-08-11T01:56:28.403Z,18.76
2022-08-11T01:57:35.817Z,18.73
2022-08-11T01:58:43.517Z,18.71
2022-08-11T01:59:51.904Z,18.72
2022-08-11T02:01:14.860Z,18.68
2022-08-11T02:02:37.739Z,18.71
2022-08-11T02:03:49.168Z,18.66
2022-08-11T02:05:01.121Z,18.63
2022-08-11T02:06:11.963Z,18.62
2022-08-11T02:07:30.182Z,18.60
2022-08-11T02:08:58.869Z,18.62
2022-08-11T02:10:29.617Z,18.61
2022-08-11T02:11:38.919Z,18.60
2022-08-11T02:13:00.744Z,18.58
2022-08-11T02:14:14.961Z,18.58
2022-08-11T02:15:34.536Z,18.58
2022-08-11T02:16:59.801Z,18.58
2022-08-11T02:18:13.718Z,18.54
2022-08-11T02:19:18.483Z,18.53
2022-08-11T02:20:26.386Z,18.51
2022-08-11T02:21:38.635Z,18.53
2022-08-11T02:23:01.967Z,18.55
2022-08-11T02:24:11.532Z,18.54
2022-08-11T02:25:35.957Z,18.51
2022-08-11T02:26:46.215Z,18.46
2022-08-11T02:28:19.404Z,18.49
2022-08-11T02:29:43.603Z,18.49
2022-08-11T02:32:23.895Z,18.46
2022-08-11T02:33:08.488Z,18.43
2022-08-11T02:34:59.256Z,18.41
2022-08-11T02:36:10.538Z,18.42
2022-08-11T02:37:22.036Z,18.41
2022-08-11T02:38:32.462Z,18.39
2022-08-11T02:39:55.597Z,18.39
2022-08-11T02:41:16.344Z,18.43
2022-08-11T02:42:36.210Z,18.53
2022-08-11T02:44:02.730Z,18.48
2022-08-11T02:45:19.407Z,18.42
2022-08-11T02:46:32.690Z,18.36
2022-08-11T02:48:01.147Z,18.34
2022-08-11T02:49:02.589Z,18.32
2022-08-11T02:50:23.442Z,18.28
2022-08-11T02:52:09.770Z,18.28
2022-08-11T02:53:26.109Z,18.33
2022-08-11T02:54:44.529Z,18.28
2022-08-11T02:56:12.686Z,18.28
2022-08-11T02:57:51.561Z,18.25
2022-08-11T02:59:07.465Z,18.18
2022-08-11T03:00:11.309Z,18.16
2022-08-11T03:01:24.194Z,18.13
2022-08-11T03:02:28.790Z,18.08
2022-08-11T03:03:37.138Z,18.08
2022-08-11T03:05:25.028Z,18.06
2022-08-11T03:06:32.063Z,18.02
2022-08-11T03:07:47.943Z,18.01
2022-08-11T03:09:13.826Z,17.98
2022-08-11T03:10:24.012Z,17.95
2022-08-11T03:11:34.666Z,17.90
2022-08-11T03:13:04.094Z,17.89
2022-08-11T03:14:14.496Z,17.86
2022-08-11T03:15:22.460Z,17.85
2022-08-11T03:16:50.425Z,17.84
2022-08-11T03:18:13.487Z,17.80
2022-08-11T03:19:45.854Z,17.79
2022-08-11T03:20:59.517Z,17.79
2022-08-11T03:22:19.216Z,17.78
2022-08-11T03:23:49.523Z,17.79
2022-08-11T03:25:03.459Z,17.76
2022-08-11T03:26:22.205Z,17.76
2022-08-11T03:27:37.422Z,17.74
2022-08-11T03:28:59.688Z,17.72
2022-08-11T03:30:13.397Z,17.72
2022-08-11T03:31:27.314Z,17.73
2022-08-11T03:32:37.878Z,17.72
2022-08-11T03:33:46.987Z,17.70
2022-08-11T03:34:50.862Z,17.70
2022-08-11T03:36:15.459Z,17.66
2022-08-11T03:37:38.812Z,17.64
2022-08-11T03:39:03.425Z,17.63
2022-08-11T03:40:23.750Z,17.61
2022-08-11T03:42:06.043Z,17.60
2022-08-11T03:43:58.572Z,17.57
2022-08-11T03:45:19.213Z,17.58
2022-08-11T03:46:41.399Z,17.53
2022-08-11T03:47:54.989Z,17.56
2022-08-11T03:49:23.431Z,17.52
2022-08-11T03:50:55.675Z,17.52
2022-08-11T03:52:15.842Z,17.48
2022-08-11T03:53:23.116Z,17.50
2022-08-11T03:54:45.655Z,17.50
2022-08-11T03:56:02.249Z,17.51
2022-08-11T03:57:40.685Z,17.50
2022-08-11T03:59:24.653Z,17.49
2022-08-11T04:00:29.040Z,17.48
2022-08-11T04:01:36.350Z,17.48
2022-08-11T04:03:15.236Z,17.47
2022-08-11T04:04:51.195Z,17.45
2022-08-11T04:06:27.187Z,17.44
2022-08-11T04:07:57.441Z,17.40
2022-08-11T04:09:43.800Z,17.40
2022-08-11T04:11:19.636Z,17.42
2022-08-11T04:12:52.903Z,17.43
2022-08-11T04:14:22.642Z,17.40
2022-08-11T04:15:24.245Z,17.38
2022-08-11T04:16:47.342Z,17.40
2022-08-11T04:18:00.849Z,17.38
2022-08-11T04:19:20.887Z,17.37
2022-08-11T04:20:51.630Z,17.34
2022-08-11T04:22:16.805Z,17.31
2022-08-11T04:24:36.061Z,17.31
2022-08-11T04:25:14.835Z,17.32
2022-08-11T04:26:35.131Z,17.31
2022-08-11T04:27:59.022Z,17.32
2022-08-11T04:29:09.528Z,17.33
2022-08-11T04:30:39.332Z,17.35
2022-08-11T04:31:51.525Z,17.36
2022-08-11T04:33:11.483Z,17.36
2022-08-11T04:34:18.900Z,17.39
2022-08-11T04:35:23.281Z,17.42
2022-08-11T04:36:52.813Z,17.41
2022-08-11T04:38:31.527Z,17.42
2022-08-11T04:39:46.847Z,17.43
2022-08-11T04:41:07.079Z,17.48
2022-08-11T04:42:46.074Z,17.50
2022-08-11T04:44:12.228Z,17.51
2022-08-11T04:45:28.719Z,17.56
2022-08-11T04:46:56.048Z,17.60
2022-08-11T04:48:28.030Z,17.65
2022-08-11T04:50:14.707Z,17.71
2022-08-11T04:51:44.155Z,17.78
2022-08-11T04:52:57.833Z,17.83
2022-08-11T04:54:17.330Z,17.91
2022-08-11T04:55:37.763Z,17.99
2022-08-11T04:56:43.555Z,18.04
2022-08-11T04:58:04.252Z,18.10
2022-08-11T04:59:22.538Z,18.16
2022-08-11T05:00:30.688Z,18.25
2022-08-11T05:01:37.552Z,18.37
2022-08-11T05:02:57.567Z,18.61
2022-08-11T05:04:36.324Z,19.04
2022-08-11T05:05:56.572Z,19.72
2022-08-11T05:07:24.995Z,20.39
2022-08-11T05:09:04.097Z,20.79
2022-08-11T05:10:56.103Z,21.19
2022-08-11T05:12:16.560Z,21.33
2022-08-11T05:13:28.442Z,21.42
2022-08-11T05:14:34.778Z,21.44
2022-08-11T05:15:51.502Z,21.50
2022-08-11T05:16:56.760Z,21.55
2022-08-11T05:18:07.385Z,21.66
2022-08-11T05:19:17.360Z,21.89
2022-08-11T05:20:21.405Z,22.10
2022-08-11T05:21:25.243Z,22.34
2022-08-11T05:22:30.104Z,22.51
2022-08-11T05:23:34.182Z,22.65
2022-08-11T05:24:43.203Z,22.78
2022-08-11T05:26:45.211Z,22.90
2022-08-11T05:27:13.998Z,23.21
2022-08-11T05:28:40.958Z,23.48
2022-08-11T05:29:47.203Z,24.02
2022-08-11T05:30:50.520Z,24.32
2022-08-11T05:31:59.593Z,24.95
2022-08-11T05:33:07.730Z,25.42
2022-08-11T05:34:47.254Z,26.32
2022-08-11T05:36:01.403Z,27.39
2022-08-11T05:37:25.570Z,28.05
2022-08-11T05:38:32.342Z,28.51
2022-08-11T05:39:44.213Z,28.52
2022-08-11T05:40:51.255Z,28.47
2022-08-11T05:41:59.294Z,28.05
2022-08-11T05:43:11.824Z,27.70
2022-08-11T05:44:21.566Z,27.04
2022-08-11T05:45:25.510Z,26.73
2022-08-11T05:46:28.468Z,26.07
2022-08-11T05:47:30.670Z,25.66
2022-08-11T05:48:36.747Z,25.31
2022-08-11T05:49:39.052Z,24.98
2022-08-11T05:50:41.498Z,24.84
2022-08-11T05:51:54.699Z,24.70
2022-08-11T05:52:57.513Z,24.50
2022-08-11T05:54:00.852Z,23.88
2022-08-11T05:55:07.200Z,23.66
2022-08-11T05:56:09.407Z,23.48
2022-08-11T05:57:39.708Z,23.24
2022-08-11T05:58:46.085Z,22.93
2022-08-11T05:59:48.566Z,22.64
2022-08-11T06:00:50.950Z,22.39
2022-08-11T06:01:53.204Z,22.28
2022-08-11T06:02:58.207Z,22.03
2022-08-11T06:04:08.970Z,22.06
2022-08-11T06:05:12.286Z,22.10
2022-08-11T06:06:13.827Z,22.15
2022-08-11T06:07:15.518Z,22.46
2022-08-11T06:08:17.552Z,22.63
2022-08-11T06:09:46.948Z,22.88
2022-08-11T06:10:49.006Z,23.21
2022-08-11T06:11:51.174Z,23.55
2022-08-11T06:12:53.881Z,23.85
2022-08-11T06:13:56.931Z,23.74
2022-08-11T06:15:03.074Z,23.49
2022-08-11T06:16:07.180Z,23.40
2022-08-11T06:17:09.300Z,23.22
2022-08-11T06:18:13.012Z,23.18
2022-08-11T06:19:15.171Z,23.00
2022-08-11T06:20:19.085Z,22.98
2022-08-11T06:21:22.110Z,23.04
2022-08-11T06:22:24.098Z,23.19
2022-08-11T06:23:32.691Z,23.13
2022-08-11T06:24:37.539Z,22.99
2022-08-11T06:25:39.421Z,22.97
2022-08-11T06:27:09.102Z,22.97
2022-08-11T06:28:09.301Z,23.03
2022-08-11T06:29:11.675Z,23.43
2022-08-11T06:30:13.611Z,24.05
2022-08-11T06:31:22.901Z,24.78
2022-08-11T06:32:27.691Z,25.52
2022-08-11T06:33:38.775Z,26.36
2022-08-11T06:35:04.865Z,27.08
2022-08-11T06:36:27.099Z,28.35
2022-08-11T06:37:46.566Z,29.34
2022-08-11T06:39:22.603Z,30.46
2022-08-11T06:40:47.367Z,31.11
2022-08-11T06:42:03.357Z,31.48
2022-08-11T06:43:21.158Z,32.01
2022-08-11T06:45:02.779Z,32.73
2022-08-11T06:46:09.976Z,33.53
2022-08-11T06:47:15.115Z,33.98
2022-08-11T06:48:19.815Z,34.40
2022-08-11T06:49:24.063Z,34.67
2022-08-11T06:50:25.859Z,35.08
2022-08-11T06:51:28.231Z,35.40
2022-08-11T06:52:36.643Z,35.65
2022-08-11T06:53:39.730Z,36.02
2022-08-11T06:54:49.920Z,36.17
2022-08-11T06:55:58.097Z,36.21
2022-08-11T06:57:28.214Z,35.75
2022-08-11T06:58:28.230Z,35.87
2022-08-11T06:59:29.967Z,35.93
2022-08-11T07:00:34.095Z,35.36
2022-08-11T07:01:47.898Z,34.98
2022-08-11T07:03:00.372Z,35.32
2022-08-11T07:04:08.782Z,35.55
2022-08-11T07:05:24.597Z,35.76
2022-08-11T07:07:07.607Z,36.47
2022-08-11T07:08:34.419Z,36.94
2022-08-11T07:10:01.735Z,37.20
2022-08-11T07:11:45.363Z,37.29
2022-08-11T07:12:53.871Z,37.48
2022-08-11T07:13:59.308Z,37.63
2022-08-11T07:15:06.155Z,37.76
2022-08-11T07:16:12.297Z,37.50
2022-08-11T07:17:19.786Z,37.31
2022-08-11T07:18:25.828Z,37.73
2022-08-11T07:19:30.202Z,37.32
2022-08-11T07:20:31.893Z,37.71
2022-08-11T07:21:43.030Z,37.84
2022-08-11T07:23:03.016Z,37.17
2022-08-11T07:24:13.727Z,37.29
2022-08-11T07:25:16.475Z,37.69
2022-08-11T07:26:21.756Z,37.83
2022-08-11T07:27:31.196Z,37.92
2022-08-11T07:28:39.883Z,37.71
2022-08-11T07:29:44.928Z,37.75
2022-08-11T07:30:48.164Z,37.26
2022-08-11T07:31:54.359Z,36.62
2022-08-11T07:32:59.591Z,36.02
2022-08-11T07:34:19.575Z,35.10
2022-08-11T07:35:31.637Z,34.69
2022-08-11T07:36:33.955Z,33.93
2022-08-11T07:37:36.265Z,33.27
2022-08-11T07:38:48.709Z,32.16
2022-08-11T07:39:52.365Z,31.08
2022-08-11T07:40:58.138Z,30.39
2022-08-11T07:42:06.592Z,29.93
2022-08-11T07:43:08.317Z,29.56
2022-08-11T07:44:10.903Z,29.43
2022-08-11T07:45:13.845Z,29.26
2022-08-11T07:46:16.813Z,28.80
2022-08-11T07:47:18.753Z,28.62
2022-08-11T07:48:20.978Z,28.29
2022-08-11T07:49:22.582Z,28.11
2022-08-11T07:50:24.592Z,28.09
2022-08-11T07:51:26.248Z,27.90
2022-08-11T07:52:33.185Z,27.75
2022-08-11T07:53:57.887Z,27.68
2022-08-11T07:55:03.051Z,27.41
2022-08-11T07:56:05.625Z,27.61
2022-08-11T07:57:59.511Z,27.48
2022-08-11T07:58:41.467Z,27.33
2022-08-11T07:59:59.879Z,27.22
2022-08-11T08:01:03.034Z,27.22
2022-08-11T08:02:12.584Z,27.19
2022-08-11T08:03:14.457Z,27.29
2022-08-11T08:04:18.412Z,27.35
2022-08-11T08:05:20.872Z,27.29
2022-08-11T08:06:36.211Z,27.27
2022-08-11T08:07:38.609Z,27.32
2022-08-11T08:08:42.067Z,27.11
2022-08-11T08:09:44.526Z,27.06
2022-08-11T08:10:46.257Z,26.97
2022-08-11T08:11:48.531Z,26.93
2022-08-11T08:12:50.340Z,26.92
2022-08-11T08:13:53.988Z,26.96
2022-08-11T08:14:57.452Z,26.94
2022-08-11T08:15:59.335Z,26.90
2022-08-11T08:17:01.275Z,26.95
2022-08-11T08:18:09.776Z,26.88
2022-08-11T08:19:27.593Z,26.98
2022-08-11T08:20:35.236Z,26.87
2022-08-11T08:21:39.020Z,26.95
2022-08-11T08:22:43.998Z,27.02
2022-08-11T08:23:53.793Z,26.88
2022-08-11T08:24:58.123Z,26.74
2022-08-11T08:26:13.581Z,26.78
2022-08-11T08:27:19.135Z,26.65
2022-08-11T08:28:21.698Z,26.57
2022-08-11T08:29:24.159Z,26.53
2022-08-11T08:30:27.179Z,26.46
2022-08-11T08:31:28.998Z,26.42
2022-08-11T08:32:31.631Z,26.46
2022-08-11T08:33:33.353Z,26.47
2022-08-11T08:34:37.439Z,26.55
2022-08-11T08:35:56.138Z,26.55
2022-08-11T08:36:58.375Z,26.61
2022-08-11T08:38:00.299Z,26.75
2022-08-11T08:39:02.005Z,26.75
2022-08-11T08:40:06.134Z,26.66
2022-08-11T08:41:08.898Z,26.59
2022-08-11T08:42:21.070Z,26.62
2022-08-11T08:43:24.153Z,26.61
2022-08-11T08:44:38.392Z,26.66
2022-08-11T08:45:43.543Z,26.79
2022-08-11T08:46:50.476Z,26.74
2022-08-11T08:47:58.564Z,26.80
2022-08-11T08:49:04.537Z,26.73
2022-08-11T08:50:16.212Z,26.56
2022-08-11T08:51:18.874Z,26.35
2022-08-11T08:52:29.541Z,26.39
2022-08-11T08:53:52.189Z,26.39
2022-08-11T08:54:58.125Z,26.56
2022-08-11T08:56:01.859Z,26.78
2022-08-11T08:57:09.095Z,26.86
2022-08-11T08:58:12.466Z,26.90
2022-08-11T08:59:15.511Z,26.94
2022-08-11T09:00:23.413Z,26.74
2022-08-11T09:01:29.380Z,26.80
2022-08-11T09:02:34.359Z,26.81
2022-08-11T09:04:07.323Z,26.82
2022-08-11T09:05:01.006Z,26.99
2022-08-11T09:06:02.682Z,27.13
2022-08-11T09:07:09.545Z,27.10
2022-08-11T09:08:18.272Z,27.09
2022-08-11T09:09:22.004Z,27.01
2022-08-11T09:10:25.086Z,26.90
2022-08-11T09:11:26.926Z,26.97
2022-08-11T09:12:38.606Z,27.08
2022-08-11T09:13:42.243Z,27.01
2022-08-11T09:14:48.745Z,26.85
2022-08-11T09:15:55.826Z,26.84
2022-08-11T09:16:57.959Z,26.81
2022-08-11T09:18:01.572Z,26.89
2022-08-11T09:19:04.077Z,27.05
2022-08-11T09:20:08.948Z,26.93
2022-08-11T09:21:15.478Z,27.01
2022-08-11T09:22:40.360Z,27.09
2022-08-11T09:25:09.087Z,27.27
2022-08-11T09:26:11.293Z,27.36
2022-08-11T09:27:13.988Z,27.29
2022-08-11T09:28:17.391Z,27.34
2022-08-11T09:29:19.276Z,27.31
2022-08-11T09:30:21.079Z,27.41
2022-08-11T09:31:22.844Z,27.42
2022-08-11T09:32:25.106Z,27.24
2022-08-11T09:33:28.792Z,27.22
2022-08-11T09:34:30.959Z,27.24
2022-08-11T09:35:36.249Z,27.24
2022-08-11T09:36:41.469Z,27.29
2022-08-11T09:37:54.484Z,27.34
2022-08-11T09:39:00.046Z,27.40
2022-08-11T09:40:02.703Z,27.39
2022-08-11T09:41:07.822Z,27.41
2022-08-11T09:42:16.612Z,27.44
2022-08-11T09:43:25.894Z,27.28
2022-08-11T09:44:28.242Z,27.35
2022-08-11T09:45:40.261Z,27.40
2022-08-11T09:46:42.199Z,27.47
2022-08-11T09:47:44.215Z,27.48
2022-08-11T09:48:47.183Z,27.56
2022-08-11T09:49:49.630Z,27.63
2022-08-11T09:50:56.009Z,27.79
2022-08-11T09:52:05.042Z,27.87
2022-08-11T09:53:37.688Z,27.76
2022-08-11T09:54:29.597Z,27.51
2022-08-11T09:55:31.436Z,27.46
2022-08-11T09:56:33.787Z,27.41
2022-08-11T09:57:35.350Z,27.37
2022-08-11T09:58:43.402Z,27.25
2022-08-11T09:59:45.831Z,27.21
2022-08-11T10:00:49.860Z,27.09
2022-08-11T10:01:57.026Z,27.20
2022-08-11T10:02:59.652Z,27.12
2022-08-11T10:04:07.568Z,27.19
2022-08-11T10:05:10.298Z,27.23
2022-08-11T10:06:12.340Z,27.36
2022-08-11T10:07:15.695Z,27.41
2022-08-11T10:08:18.688Z,27.36
2022-08-11T10:09:22.870Z,27.41
2022-08-11T10:10:27.293Z,27.45
2022-08-11T10:11:29.851Z,27.32
2022-08-11T10:12:37.314Z,27.33
2022-08-11T10:14:31.011Z,27.34
2022-08-11T10:15:09.526Z,27.22
2022-08-11T10:16:15.534Z,27.20
2022-08-11T10:17:21.747Z,27.26
2022-08-11T10:18:33.894Z,27.30
2022-08-11T10:19:38.717Z,27.34
2022-08-11T10:20:41.942Z,27.48
2022-08-11T10:21:47.344Z,27.62
2022-08-11T10:22:49.190Z,27.66
2022-08-11T10:24:01.253Z,27.75
2022-08-11T10:25:08.077Z,27.90
2022-08-11T10:26:09.806Z,28.02
2022-08-11T10:27:11.464Z,28.04
2022-08-11T10:28:29.042Z,28.08
2022-08-11T10:29:45.150Z,28.12
2022-08-11T10:30:52.742Z,28.13
2022-08-11T10:31:57.485Z,28.17
2022-08-11T10:33:02.780Z,28.19
2022-08-11T10:34:09.792Z,27.93
2022-08-11T10:35:15.931Z,27.96
2022-08-11T10:36:20.144Z,27.87
2022-08-11T10:37:24.311Z,27.89
2022-08-11T10:38:47.300Z,27.86
2022-08-11T10:39:49.947Z,27.87
2022-08-11T10:40:52.030Z,27.96
2022-08-11T10:42:03.568Z,28.06
2022-08-11T10:43:14.507Z,28.13
2022-08-11T10:44:53.433Z,28.31
2022-08-11T10:45:55.005Z,28.35
2022-08-11T10:46:56.506Z,28.38
2022-08-11T10:47:59.772Z,28.35
2022-08-11T10:49:02.008Z,28.38
2022-08-11T10:50:11.889Z,28.44
2022-08-11T10:51:14.488Z,28.56
2022-08-11T10:52:16.371Z,28.57
2022-08-11T10:53:18.940Z,28.58
2022-08-11T10:54:22.744Z,28.51
2022-08-11T10:55:25.826Z,28.57
2022-08-11T10:56:34.090Z,28.68
2022-08-11T10:57:35.936Z,28.54
2022-08-11T10:58:39.514Z,28.54
2022-08-11T10:59:42.151Z,28.53
2022-08-11T11:00:45.405Z,28.52
2022-08-11T11:01:47.210Z,28.54
2022-08-11T11:03:05.428Z,28.63
2022-08-11T11:04:16.670Z,28.77
2022-08-11T11:05:30.559Z,28.87
2022-08-11T11:06:56.420Z,28.91
2022-08-11T11:08:08.123Z,28.99
2022-08-11T11:09:34.194Z,29.01
2022-08-11T11:10:35.949Z,29.04
2022-08-11T11:11:42.691Z,29.17
2022-08-11T11:12:46.940Z,29.24
2022-08-11T11:13:55.011Z,29.12
2022-08-11T11:14:59.279Z,29.12
2022-08-11T11:16:01.150Z,29.22
2022-08-11T11:17:06.042Z,29.36
2022-08-11T11:18:11.354Z,29.31
2022-08-11T11:19:13.483Z,29.31
2022-08-11T11:20:36.241Z,29.37
2022-08-11T11:21:42.981Z,29.34
2022-08-11T11:22:45.891Z,29.26
2022-08-11T11:24:07.175Z,29.26
2022-08-11T11:25:17.489Z,29.34
2022-08-11T11:26:30.868Z,29.45
2022-08-11T11:27:55.182Z,29.59
2022-08-11T11:29:18.646Z,29.49
2022-08-11T11:30:21.448Z,29.46
2022-08-11T11:31:44.316Z,29.59
2022-08-11T11:33:16.007Z,29.76
2022-08-11T11:34:23.467Z,29.78
2022-08-11T11:35:41.519Z,29.79
2022-08-11T11:36:51.894Z,29.87
2022-08-11T11:38:04.089Z,29.95
2022-08-11T11:39:08.446Z,29.88
2022-08-11T11:40:16.135Z,29.85
2022-08-11T11:41:17.946Z,29.90
2022-08-11T11:42:20.755Z,30.00
2022-08-11T11:43:22.467Z,29.91
2022-08-11T11:44:25.288Z,29.88
2022-08-11T11:45:27.053Z,30.04
2022-08-11T11:46:31.143Z,30.22
2022-08-11T11:47:41.930Z,30.14
2022-08-11T11:48:43.930Z,30.10
2022-08-11T11:49:47.249Z,30.20
2022-08-11T11:50:49.303Z,30.31
2022-08-11T11:51:52.532Z,30.38
2022-08-11T11:52:55.216Z,30.44
2022-08-11T11:53:57.075Z,30.44
2022-08-11T11:55:00.011Z,30.29
2022-08-11T11:56:03.322Z,30.05
2022-08-11T11:57:05.495Z,29.97
2022-08-11T11:58:07.872Z,30.03
2022-08-11T11:59:12.276Z,30.10
2022-08-11T12:00:16.688Z,30.08
2022-08-11T12:01:19.305Z,30.19
2022-08-11T12:02:21.306Z,30.22
2022-08-11T12:03:24.463Z,30.23
2022-08-11T12:04:29.814Z,30.17
2022-08-11T12:05:34.469Z,30.10
2022-08-11T12:06:37.727Z,30.19
2022-08-11T12:07:41.111Z,30.36
2022-08-11T12:08:44.739Z,30.41
2022-08-11T12:09:47.451Z,30.41
2022-08-11T12:10:54.841Z,30.39
2022-08-11T12:11:56.551Z,30.51
2022-08-11T12:13:02.275Z,30.67
2022-08-11T12:14:10.359Z,30.77
2022-08-11T12:15:13.169Z,30.90
2022-08-11T12:16:34.483Z,30.88
2022-08-11T12:17:38.803Z,30.92
2022-08-11T12:18:42.700Z,30.99
2022-08-11T12:19:48.479Z,30.90
2022-08-11T12:20:50.760Z,30.99
2022-08-11T12:21:59.391Z,30.93
2022-08-11T12:23:02.812Z,31.04
2022-08-11T12:24:05.345Z,31.15
2022-08-11T12:25:07.556Z,31.03
2022-08-11T12:26:26.464Z,31.11
2022-08-11T12:27:30.673Z,31.25
2022-08-11T12:28:34.468Z,31.19
2022-08-11T12:29:41.186Z,31.30
2022-08-11T12:30:47.455Z,31.27
2022-08-11T12:31:51.261Z,31.13
2022-08-11T12:32:53.008Z,31.13
2022-08-11T12:34:00.881Z,31.11
2022-08-11T12:35:04.006Z,30.95
2022-08-11T12:36:06.130Z,31.05
2022-08-11T12:37:08.968Z,31.05
2022-08-11T12:38:12.834Z,31.14
2022-08-11T12:39:24.085Z,31.16
2022-08-11T12:41:11.203Z,31.28
2022-08-11T12:41:48.521Z,31.14
2022-08-11T12:42:50.814Z,31.20
2022-08-11T12:44:00.775Z,31.31
2022-08-11T12:45:05.578Z,31.45
2022-08-11T12:46:29.032Z,31.67
2022-08-11T12:47:32.408Z,31.74
2022-08-11T12:48:59.109Z,31.70
2022-08-11T12:49:59.636Z,31.69
2022-08-11T12:51:05.278Z,31.71
2022-08-11T12:52:13.417Z,31.78
2022-08-11T12:53:18.739Z,31.76
2022-08-11T12:54:34.331Z,31.61
2022-08-11T12:55:36.603Z,31.28
2022-08-11T12:56:47.833Z,31.24
2022-08-11T12:57:49.657Z,31.14
2022-08-11T12:58:52.870Z,31.16
2022-08-11T12:59:55.622Z,31.31
2022-08-11T13:00:57.737Z,31.46
2022-08-11T13:01:59.691Z,31.64
2022-08-11T13:03:03.411Z,31.69
2022-08-11T13:04:05.815Z,31.70
2022-08-11T13:05:11.750Z,31.65
2022-08-11T13:06:16.377Z,31.67
2022-08-11T13:07:18.487Z,31.75
2022-08-11T13:08:22.070Z,31.87
2022-08-11T13:09:23.782Z,31.69
2022-08-11T13:10:25.829Z,31.43
2022-08-11T13:11:57.059Z,31.47
2022-08-11T13:12:49.410Z,31.43
2022-08-11T13:13:57.468Z,31.40
2022-08-11T13:15:00.617Z,31.33
2022-08-11T13:16:05.371Z,31.47
2022-08-11T13:17:07.115Z,31.45
2022-08-11T13:18:11.723Z,31.48
2022-08-11T13:19:13.296Z,31.57
2022-08-11T13:20:22.311Z,31.41
2022-08-11T13:21:24.691Z,31.51
2022-08-11T13:22:27.584Z,31.51
2022-08-11T13:23:29.645Z,31.39
2022-08-11T13:24:32.123Z,31.43
2022-08-11T13:25:33.754Z,31.52
2022-08-11T13:26:47.709Z,31.62
2022-08-11T13:27:55.892Z,31.68
2022-08-11T13:29:01.881Z,31.78
2022-08-11T13:30:04.406Z,31.65
2022-08-11T13:31:06.473Z,31.58
2022-08-11T13:32:09.348Z,31.46
2022-08-11T13:33:11.949Z,31.47
2022-08-11T13:34:15.578Z,31.60
2022-08-11T13:35:18.365Z,31.89
2022-08-11T13:36:23.087Z,31.92
2022-08-11T13:38:27.456Z,32.02
2022-08-11T13:38:50.073Z,32.16
2022-08-11T13:39:52.017Z,32.32
2022-08-11T13:40:56.462Z,32.28
2022-08-11T13:41:59.841Z,32.34
2022-08-11T13:43:01.546Z,32.29
2022-08-11T13:44:04.301Z,32.41
2022-08-11T13:45:07.814Z,32.60
2022-08-11T13:46:09.514Z,32.63
2022-08-11T13:47:13.610Z,32.69
2022-08-11T13:48:16.896Z,32.76
2022-08-11T13:49:20.655Z,32.86
2022-08-11T13:50:24.091Z,32.89
2022-08-11T13:51:34.573Z,32.89
2022-08-11T13:52:38.364Z,33.11
2022-08-11T13:53:40.082Z,33.14
2022-08-11T13:54:42.885Z,33.20
2022-08-11T13:55:52.368Z,33.29
2022-08-11T13:57:01.168Z,33.10
2022-08-11T13:58:08.059Z,33.20
2022-08-11T13:59:23.864Z,33.26
2022-08-11T14:00:29.183Z,33.27
2022-08-11T14:02:04.467Z,33.29
2022-08-11T14:02:58.481Z,33.37
2022-08-11T14:04:30.706Z,33.31
2022-08-11T14:05:40.028Z,33.35
2022-08-11T14:06:53.890Z,33.41
2022-08-11T14:08:07.686Z,33.32
2022-08-11T14:09:10.611Z,33.54
2022-08-11T14:10:16.036Z,33.60
2022-08-11T14:12:20.278Z,33.60
2022-08-11T14:12:43.045Z,33.67
2022-08-11T14:13:48.217Z,33.85
2022-08-11T14:14:56.361Z,33.89
2022-08-11T14:16:03.776Z,33.91
2022-08-11T14:17:07.065Z,33.89
2022-08-11T14:18:18.836Z,33.93
2022-08-11T14:19:24.043Z,33.86
2022-08-11T14:20:38.501Z,33.57
2022-08-11T14:21:45.053Z,33.42
2022-08-11T14:22:49.540Z,33.42
2022-08-11T14:23:53.626Z,33.50
2022-08-11T14:24:57.271Z,33.59
2022-08-11T14:26:02.543Z,33.61
2022-08-11T14:27:06.483Z,33.57
2022-08-11T14:28:31.934Z,33.72
2022-08-11T14:29:30.528Z,33.70
2022-08-11T14:30:32.173Z,33.68
2022-08-11T14:31:37.849Z,33.59
2022-08-11T14:32:53.147Z,33.62
2022-08-11T14:34:02.191Z,33.68
2022-08-11T14:35:04.877Z,33.74
2022-08-11T14:36:10.231Z,33.92
2022-08-11T14:37:20.050Z,34.05
2022-08-11T14:38:21.835Z,34.16
2022-08-11T14:39:28.770Z,34.07
2022-08-11T14:40:31.695Z,34.08
2022-08-11T14:41:36.454Z,34.06
2022-08-11T14:42:38.652Z,33.95
2022-08-11T14:44:14.154Z,33.66
2022-08-11T14:45:06.171Z,33.65
2022-08-11T14:46:08.186Z,33.48
2022-08-11T14:47:24.350Z,33.52
2022-08-11T14:48:26.953Z,33.49
2022-08-11T14:49:29.597Z,33.50
2022-08-11T14:50:34.910Z,33.43
2022-08-11T14:51:37.004Z,33.55
2022-08-11T14:52:59.284Z,33.49
2022-08-11T14:54:01.141Z,33.62
2022-08-11T14:55:04.179Z,33.82
2022-08-11T14:56:06.648Z,33.81
2022-08-11T14:57:11.374Z,33.83
2022-08-11T14:58:21.559Z,33.93
2022-08-11T14:59:24.587Z,33.95
2022-08-11T15:00:26.791Z,33.84
2022-08-11T15:01:28.709Z,33.94
2022-08-11T15:02:30.803Z,33.93
2022-08-11T15:03:33.017Z,34.02
2022-08-11T15:04:36.807Z,34.16
2022-08-11T15:05:57.281Z,34.14
2022-08-11T15:07:00.141Z,33.83
2022-08-11T15:08:02.053Z,33.79
2022-08-11T15:09:08.855Z,33.75
2022-08-11T15:10:13.189Z,33.64
2022-08-11T15:11:17.791Z,33.42
2022-08-11T15:12:33.033Z,33.41
2022-08-11T15:13:36.460Z,33.39
2022-08-11T15:14:39.202Z,33.45
2022-08-11T15:15:43.007Z,33.50
2022-08-11T15:16:46.106Z,33.56
2022-08-11T15:17:48.087Z,33.39